Flight Track Log - Related Links

Times and Time Zones

All times are in EDT time to prevent confusion due to time zone crossing. See the DAL268 flight status page for this flight to view local times or setup timezone preferences in your user account.

Time Position Orientation Groundspeed Altitude Reporting Facility
EDT Latitude Longitude Course Direction KTS MPH feet Rate Location/Type
Tue 02:26:14 PM 37.6060 -122.3830 22° Northeast  Level FlightAware ADS-B
Tue 02:28:00 PM 37.7692 -122.2142 38° Northeast  Level FlightAware Approximate
Tue 02:29:00 PM 37.8613 -122.1220 38° Northeast  Level FlightAware Approximate
Tue 02:30:27 PM 37.6170 -122.3740 25° Northeast 145 167  Level FlightAware ADS-B
Tue 02:30:56 PM 37.6348 -122.3610 30° Northeast 163 188 1,000 2,182 Climbing FlightAware ADS-B
Tue 02:31:00 PM 37.6373 -122.3580 44° Northeast 166 191 1,200 2,250 Climbing FlightAware ADS-B
Tue 02:31:04 PM 37.6392 -122.3550 51° Northeast 170 196 1,300 1,500 Climbing FlightAware ADS-B
Tue 02:31:12 PM 37.6439 -122.3480 50° Northeast 186 214 1,500 1,667 Climbing FlightAware ADS-B
Tue 02:31:22 PM 37.6494 -122.3400 49° Northeast 196 226 1,800 1,714 Climbing FlightAware ADS-B
Tue 02:31:40 PM 37.6606 -122.3240 49° Northeast 218 251 2,300 1,941 Climbing FlightAware ADS-B
Tue 02:31:56 PM 37.6712 -122.3080 50° Northeast 230 265 2,900 2,250 Climbing FlightAware ADS-B
Tue 02:32:12 PM 37.6828 -122.2910 49° Northeast 242 278 3,500 1,920 Climbing FlightAware ADS-B
Tue 02:32:21 PM 37.6897 -122.2810 49° Northeast 260 299 3,700 2,000 Climbing FlightAware ADS-B
Tue 02:32:39 PM 37.7047 -122.2600 48° Northeast 275 316 4,400 2,667 Climbing FlightAware ADS-B
Tue 02:32:48 PM 37.7126 -122.2490 48° Northeast 278 320 4,900 3,000 Climbing FlightAware ADS-B
Tue 02:33:05 PM 37.7299 -122.2320 38° Northeast 282 325 5,700 2,780 Climbing FlightAware ADS-B
Tue 02:33:29 PM 37.7561 -122.2070 37° Northeast 292 336 6,800 2,850 Climbing FlightAware ADS-B
Tue 02:33:45 PM 37.7732 -122.1910 36° Northeast 294 338 7,600 3,000 Climbing FlightAware ADS-B
Tue 02:34:01 PM 37.7910 -122.1750 35° Northeast 297 342 8,400 2,786 Climbing FlightAware ADS-B
Tue 02:34:13 PM 37.8040 -122.1630 36° Northeast 300 345 8,900 2,400 Climbing FlightAware ADS-B
Tue 02:34:26 PM 37.8195 -122.1490 36° Northeast 307 353 9,400 2,270 Climbing FlightAware ADS-B
Tue 02:34:50 PM 37.8472 -122.1220 38° Northeast 321 369 10,300 1,200 Climbing FlightAware ADS-B
Tue 02:35:21 PM 37.8876 -122.0830 37° Northeast 372 428 10,500 677 Climbing FlightAware ADS-B
Tue 02:35:52 PM 37.9319 -122.0410 37° Northeast 406 467 11,000 1,574 Climbing FlightAware ADS-B
Tue 02:36:22 PM 37.9780 -121.9980 36° Northeast 418 481 12,100 2,091 Climbing FlightAware ADS-B
Tue 02:36:58 PM 38.0349 -121.9430 37° Northeast 431 496 13,300 1,881 Climbing FlightAware ADS-B
Tue 02:37:29 PM 38.0840 -121.8970 36° Northeast 444 511 14,200 1,810 Climbing FlightAware ADS-B
Tue 02:38:01 PM 38.1380 -121.8450 37° Northeast 452 520 15,200 1,853 Climbing FlightAware ADS-B
Tue 02:38:37 PM 38.1980 -121.7870 37° Northeast 458 527 16,300 1,917 Climbing FlightAware ADS-B
Tue 02:39:13 PM 38.2600 -121.7290 36° Northeast 464 534 17,500 1,853 Climbing FlightAware ADS-B
Tue 02:39:45 PM 38.3150 -121.6760 37° Northeast 470 541 18,400 1,765 Climbing FlightAware ADS-B
Tue 02:40:21 PM 38.3770 -121.6150 38° Northeast 475 547 19,500 1,714 Climbing FlightAware ADS-B
Tue 02:40:55 PM 38.4370 -121.5530 39° Northeast 480 552 20,400 1,595 Climbing FlightAware ADS-B
Tue 02:41:40 PM 38.5006 -121.4560 50° Northeast 485 558 21,600 1,546 Climbing FlightAware ADS-B
Tue 02:42:32 PM 38.5699 -121.3360 54° Northeast 485 558 22,900 1,546 Climbing FlightAware ADS-B
Tue 02:43:17 PM 38.6320 -121.2290 53° Northeast 499 574 24,100 1,500 Climbing FlightAware ADS-B
Tue 02:43:36 PM 38.6584 -121.1830 54° Northeast 496 571 24,500 1,254 Climbing FlightAware ADS-B
Tue 02:44:24 PM 38.7210 -121.0740 54° Northeast 507 583 25,500 1,395 Climbing FlightAware ADS-B
Tue 02:45:02 PM 38.7760 -120.9790 53° Northeast 510 587 26,500 1,562 Climbing FlightAware ADS-B
Tue 02:45:37 PM 38.8240 -120.8960 53° Northeast 510 587 27,400 1,183 Climbing FlightAware ADS-B
Tue 02:46:13 PM 38.8760 -120.8060 53° Northeast 519 597 27,900 917 Climbing FlightAware ADS-B
Tue 02:46:49 PM 38.9280 -120.7150 54° Northeast 524 603 28,500 1,147 Climbing FlightAware ADS-B
Tue 02:47:21 PM 38.9760 -120.6340 53° Northeast 526 605 29,200 1,324 Climbing FlightAware ADS-B
Tue 02:47:57 PM 39.0280 -120.5440 53° Northeast 527 606 30,000 1,315 Climbing FlightAware ADS-B
Tue 02:48:34 PM 39.0820 -120.4490 54° Northeast 525 604 30,800 1,315 Climbing FlightAware ADS-B
Tue 02:49:10 PM 39.1330 -120.3610 53° Northeast 522 601 31,600 1,371 Climbing FlightAware ADS-B
Tue 02:49:44 PM 39.1810 -120.2760 54° Northeast 521 600 32,400 1,200 Climbing FlightAware ADS-B
Tue 02:50:20 PM 39.2330 -120.1850 54° Northeast 521 600 33,000 971 Climbing FlightAware ADS-B
Tue 02:50:52 PM 39.2780 -120.1050 54° Northeast 525 604 33,500 706 Climbing FlightAware ADS-B
Tue 02:51:28 PM 39.3300 -120.0140 54° Northeast 533 613 33,800 583 Climbing FlightAware ADS-B
Tue 02:52:04 PM 39.3830 -119.9200 54° Northeast 541 623 34,200 441 Climbing FlightAware ADS-B
Tue 02:52:36 PM 39.4300 -119.8360 54° Northeast 549 632 34,300 618 Climbing FlightAware ADS-B
Tue 02:53:12 PM 39.4840 -119.7390 54° Northeast 549 632 34,900 1,250 Climbing FlightAware ADS-B
Tue 02:53:48 PM 39.5370 -119.6460 54° Northeast 542 624 35,800 1,273 Climbing FlightAware ADS-B
Tue 02:54:18 PM 39.5820 -119.5660 54° Northeast 542 624 36,300 938 Climbing FlightAware ADS-B
Tue 02:54:52 PM 39.6310 -119.4770 54° Northeast 542 624 36,800 553 Climbing FlightAware ADS-B
Tue 02:55:34 PM 39.6940 -119.3650 54° Northeast 546 628 37,000 162 Climbing FlightAware ADS-B
Tue 02:56:06 PM 39.7400 -119.2820 54° Northeast 551 634 37,000  Level FlightAware ADS-B
Tue 02:56:42 PM 39.7940 -119.1830 55° Northeast 551 634 37,000  Level FlightAware ADS-B
Tue 02:57:20 PM 39.8420 -119.0770 59° Northeast 535 616 37,000  Level FlightAware ADS-B
Tue 02:57:52 PM 39.8710 -118.9830 68° East 532 612 37,000  Level FlightAware ADS-B
Tue 02:58:28 PM 39.9050 -118.8750 68° East 533 613 37,000  Level FlightAware ADS-B
Tue 02:59:02 PM 39.9380 -118.7740 67° East 534 615 37,000  Level FlightAware ADS-B
Tue 02:59:38 PM 39.9740 -118.6670 66° East 536 617 37,000  Level FlightAware ADS-B
Tue 03:00:14 PM 40.0090 -118.5630 66° East 537 618 37,000  Level FlightAware ADS-B
Tue 03:00:47 PM 40.0420 -118.4660 66° East 536 617 37,000  Level FlightAware ADS-B
Tue 03:01:24 PM 40.0770 -118.3540 68° East 534 615 37,000  Level FlightAware ADS-B
Tue 03:01:58 PM 40.1080 -118.2530 68° East 533 613 37,000  Level FlightAware ADS-B
Tue 03:02:35 PM 40.1410 -118.1440 68° East 532 612 37,000  Level FlightAware ADS-B
Tue 03:03:25 PM 40.1830 -118.0070 68° East 532 612 37,000  Level FlightAware ADS-B
Tue 03:03:52 PM 40.2110 -117.9170 68° East 530 610 37,000  Level FlightAware ADS-B
Tue 03:04:38 PM 40.2480 -117.7950 68° East 530 610 37,000  Level FlightAware ADS-B
Tue 03:05:14 PM 40.2760 -117.7040 68° East 530 610 37,000  Level FlightAware ADS-B
Tue 03:05:50 PM 40.3050 -117.6130 67° East 530 610 37,000  Level FlightAware ADS-B
Tue 03:06:26 PM 40.3330 -117.5220 68° East 530 610 37,000  Level FlightAware ADS-B
Tue 03:07:04 PM 40.3620 -117.4250 69° East 530 610 37,000  Level FlightAware ADS-B
Tue 03:07:40 PM 40.3900 -117.3340 68° East 530 610 37,000  Level FlightAware ADS-B
Tue 03:08:16 PM 40.4180 -117.2430 68° East 530 610 37,000  Level FlightAware ADS-B
Tue 03:08:52 PM 40.4470 -117.1510 67° East 530 610 37,000  Level FlightAware ADS-B
Tue 03:09:28 PM 40.4750 -117.0600 68° East 530 610 37,000  Level FlightAware ADS-B
Tue 03:10:04 PM 40.5030 -116.9680 68° East 530 610 37,000  Level FlightAware ADS-B
Tue 03:10:40 PM 40.5310 -116.8770 68° East 530 610 37,000  Level FlightAware ADS-B
Tue 03:11:23 PM 40.5640 -116.7680 68° East 530 610 37,000  Level FlightAware ADS-B
Tue 03:11:59 PM 40.5920 -116.6760 68° East 530 610 37,000  Level FlightAware ADS-B
Tue 03:12:35 PM 40.6210 -116.5840 67° East 530 610 37,000  Level FlightAware ADS-B
Tue 03:13:12 PM 40.6490 -116.4900 69° East 530 610 37,000  Level FlightAware ADS-B
Tue 03:13:25 PM 40.7151 -116.2130 72° East 522 601 37,000  Level FlightAware ADS-B
Tue 03:13:58 PM 40.7430 -116.1150 69° East 522 601 37,000  Level FlightAware ADS-B
Tue 03:14:29 PM 40.7696 -116.0220 69° East 522 601 37,000  Level FlightAware ADS-B
Tue 03:15:01 PM 40.7963 -115.9270 70° East 523 602 37,000  Level FlightAware ADS-B
Tue 03:15:32 PM 40.8222 -115.8360 69° East 523 602 37,000  Level FlightAware ADS-B
Tue 03:16:05 PM 40.8497 -115.7380 70° East 523 602 37,000  Level FlightAware ADS-B
Tue 03:16:57 PM 40.8936 -115.5820 70° East 523 602 37,000  Level FlightAware ADS-B
Tue 03:17:36 PM 40.9262 -115.4640 70° East 523 602 37,000  Level FlightAware ADS-B
Tue 03:18:07 PM 40.9519 -115.3720 70° East 524 603 37,000  Level FlightAware ADS-B
Tue 03:18:37 PM 40.9769 -115.2810 70° East 524 603 37,000  Level FlightAware ADS-B
Tue 03:19:07 PM 41.0019 -115.1900 70° East 524 603 37,000  Level FlightAware ADS-B
Tue 03:19:37 PM 41.0268 -115.1000 70° East 524 603 37,000  Level FlightAware ADS-B
Tue 03:20:08 PM 41.0519 -115.0080 70° East 526 605 37,000  Level FlightAware ADS-B
Tue 03:21:02 PM 41.0963 -114.8450 70° East 526 605 37,000  Level FlightAware ADS-B
Tue 03:21:36 PM 41.1247 -114.7400 70° East 526 605 37,000  Level FlightAware ADS-B
Tue 03:22:09 PM 41.1510 -114.6420 70° East 525 604 37,000  Level FlightAware ADS-B
Tue 03:22:39 PM 41.1755 -114.5500 70° East 525 604 37,000  Level FlightAware ADS-B
Tue 03:23:09 PM 41.2002 -114.4580 70° East 525 604 37,000  Level FlightAware ADS-B
Tue 03:23:40 PM 41.2250 -114.3650 70° East 525 604 37,000  Level FlightAware ADS-B
Tue 03:24:10 PM 41.2493 -114.2730 71° East 525 604 37,000  Level FlightAware ADS-B
Tue 03:24:42 PM 41.2748 -114.1770 71° East 524 603 37,000  Level FlightAware ADS-B
Tue 03:25:12 PM 41.2991 -114.0850 71° East 524 603 37,000  Level FlightAware ADS-B
Tue 03:25:43 PM 41.3230 -113.9940 71° East 524 603 37,000  Level FlightAware ADS-B
Tue 03:26:13 PM 41.3469 -113.9020 71° East 523 602 37,000  Level FlightAware ADS-B
Tue 03:26:40 PM 41.3654 -113.8200 73° East 520 598 37,000  Level FlightAware ADS-B
Tue 03:27:10 PM 41.3796 -113.7240 79° East 515 593 37,000  Level FlightAware ADS-B
Tue 03:27:40 PM 41.3909 -113.6300 81° East 514 592 37,000  Level FlightAware ADS-B
Tue 03:28:10 PM 41.4022 -113.5360 81° East 513 590 37,000  Level FlightAware ADS-B
Tue 03:28:41 PM 41.4137 -113.4430 81° East 512 589 37,000  Level FlightAware ADS-B
Tue 03:29:16 PM 41.4275 -113.3320 81° East 512 589 37,000  Level FlightAware ADS-B
Tue 03:29:47 PM 41.4393 -113.2380 80° East 511 588 37,000  Level FlightAware ADS-B
Tue 03:30:17 PM 41.4511 -113.1440 80° East 510 587 37,000  Level FlightAware ADS-B
Tue 03:30:47 PM 41.4627 -113.0510 81° East 509 586 37,000  Level FlightAware ADS-B
Tue 03:31:31 PM 41.4793 -112.9170 81° East 508 585 37,000  Level FlightAware ADS-B
Tue 03:32:05 PM 41.4922 -112.8110 81° East 508 585 37,000  Level FlightAware ADS-B
Tue 03:32:35 PM 41.5035 -112.7180 81° East 508 585 37,000  Level FlightAware ADS-B
Tue 03:33:06 PM 41.5147 -112.6240 81° East 507 583 37,000  Level FlightAware ADS-B
Tue 03:33:37 PM 41.5262 -112.5280 81° East 507 583 37,000  Level FlightAware ADS-B
Tue 03:34:07 PM 41.5370 -112.4340 81° East 505 581 37,000  Level FlightAware ADS-B
Tue 03:34:37 PM 41.5467 -112.3410 82° East 505 581 37,000  Level FlightAware ADS-B
Tue 03:35:15 PM 41.5584 -112.2270 82° East 505 581 37,000  Level FlightAware ADS-B
Tue 03:35:47 PM 41.5684 -112.1300 82° East 505 581 37,000  Level FlightAware ADS-B
Tue 03:36:17 PM 41.5782 -112.0350 82° East 505 581 37,000  Level FlightAware ADS-B
Tue 03:36:48 PM 41.5880 -111.9400 82° East 505 581 37,000  Level FlightAware ADS-B
Tue 03:37:18 PM 41.5974 -111.8480 82° East 505 581 37,000  Level FlightAware ADS-B
Tue 03:37:53 PM 41.6084 -111.7380 82° East 505 581 37,000  Level FlightAware ADS-B
Tue 03:38:25 PM 41.6181 -111.6420 82° East 505 581 37,000  Level FlightAware ADS-B
Tue 03:38:55 PM 41.6273 -111.5490 82° East 503 579 37,000  Level FlightAware ADS-B
Tue 03:39:25 PM 41.6365 -111.4560 82° East 502 578 37,000  Level FlightAware ADS-B
Tue 03:39:55 PM 41.6455 -111.3630 83° East 502 578 37,000  Level FlightAware ADS-B
Tue 03:40:26 PM 41.6547 -111.2680 83° East 502 578 37,000  Level FlightAware ADS-B
Tue 03:40:57 PM 41.6636 -111.1750 83° East 502 578 37,000  Level FlightAware ADS-B
Tue 03:41:27 PM 41.6723 -111.0820 83° East 501 577 37,000  Level FlightAware ADS-B
Tue 03:41:58 PM 41.6812 -110.9880 83° East 500 575 37,000  Level FlightAware ADS-B
Tue 03:42:28 PM 41.6898 -110.8950 83° East 500 575 37,000  Level FlightAware ADS-B
Tue 03:43:04 PM 41.7001 -110.7840 83° East 499 574 37,000  Level FlightAware ADS-B
Tue 03:43:34 PM 41.7085 -110.6910 83° East 499 574 37,000  Level FlightAware ADS-B
Tue 03:44:40 PM 41.7250 -110.5740 79° East 500 575 37,000  Level FlightAware ADS-B
Tue 03:45:17 PM 41.7350 -110.4770 82° East 500 575 37,000  Level FlightAware ADS-B
Tue 03:45:51 PM 41.7450 -110.3880 81° East 500 575 37,000  Level FlightAware ADS-B
Tue 03:46:29 PM 41.7550 -110.2890 82° East 500 575 37,000  Level FlightAware ADS-B
Tue 03:47:03 PM 41.7640 -110.2000 82° East 500 575 37,000  Level FlightAware ADS-B
Tue 03:47:41 PM 41.7750 -110.1010 81° East 500 575 37,000  Level FlightAware ADS-B
Tue 03:48:15 PM 41.7840 -110.0120 82° East 500 575 37,000  Level FlightAware ADS-B
Tue 03:48:51 PM 41.7940 -109.9180 82° East 500 575 37,000  Level FlightAware ADS-B
Tue 03:49:27 PM 41.8040 -109.8240 82° East 500 575 37,000  Level FlightAware ADS-B
Tue 03:50:03 PM 41.8130 -109.7300 83° East 500 575 37,000  Level FlightAware ADS-B
Tue 03:50:42 PM 41.8240 -109.6280 82° East 500 575 37,000  Level FlightAware ADS-B
Tue 03:51:18 PM 41.8340 -109.5340 82° East 500 575 37,000  Level FlightAware ADS-B
Tue 03:51:59 PM 41.8361 -109.1925 82° East 482 555 37,000  Level Salt Lake Center
Tue 03:53:01 PM 41.8486 -109.0203 84° East 482 555 37,000  Level Salt Lake Center
Tue 03:54:03 PM 41.8639 -108.8186 84° East 484 557 37,000  Level Salt Lake Center
Tue 03:55:05 PM 41.8758 -108.6453 85° East 485 558 37,000  Level Salt Lake Center
Tue 03:56:06 PM 41.8869 -108.4722 85° East 486 559 37,000  Level Salt Lake Center
Tue 03:57:58 PM 41.9119 -108.1256 84° East 484 557 37,000  Level Denver Center
Tue 03:59:00 PM 41.9239 -107.9528 85° East 485 558 37,000  Level Denver Center
Tue 04:00:02 PM 41.9372 -107.7525 85° East 482 555 37,000  Level Denver Center
Tue 04:01:03 PM 41.9478 -107.5825 85° East 480 552 37,000  Level Denver Center
Tue 04:02:05 PM 41.9603 -107.3856 85° East 477 549 37,000  Level Denver Center
Tue 04:07:52 PM 42.0180 -106.3660 85° East 472 543 37,000  Level FlightAware ADS-B
Tue 04:08:24 PM 42.0230 -106.2700 86° East 472 543 37,000  Level FlightAware ADS-B
Tue 04:08:58 PM 42.0280 -106.1750 86° East 472 543 37,000 86 Level FlightAware ADS-B
Tue 04:09:34 PM 42.0330 -106.0680 86° East 473 544 37,100 417 Climbing FlightAware ADS-B
Tue 04:10:10 PM 42.0380 -105.9620 86° East 476 548 37,500 692 Climbing FlightAware ADS-B
Tue 04:10:52 PM 42.0450 -105.8350 86° East 477 549 38,000 395 Climbing FlightAware ADS-B
Tue 04:11:26 PM 42.0490 -105.7520 86° East 477 549 38,000 727 Level FlightAware ADS-B
Tue 04:11:58 PM 42.0540 -105.6410 86° East 474 545 38,800 720 Climbing FlightAware ADS-B
Tue 04:12:41 PM 42.0590 -105.5340 86° East 472 543 38,900 156 Climbing FlightAware ADS-B
Tue 04:13:15 PM 42.0640 -105.4190 87° East 461 531 39,000 90 Climbing FlightAware ADS-B
Tue 04:13:48 PM 42.0680 -105.3270 87° East 462 532 39,000  Level FlightAware ADS-B
Tue 04:14:27 PM 42.0730 -105.2120 87° East 464 534 39,000  Level FlightAware ADS-B
Tue 04:15:01 PM 42.0790 -105.1170 85° East 465 535 39,000  Level FlightAware ADS-B
Tue 04:15:32 PM 42.0860 -105.0310 84° East 465 535 39,000  Level FlightAware ADS-B
Tue 04:16:12 PM 42.0960 -104.9260 83° East 464 534 39,000  Level FlightAware ADS-B
Tue 04:16:48 PM 42.1040 -104.8380 83° East 464 534 39,000  Level FlightAware ADS-B
Tue 04:17:24 PM 42.1120 -104.7500 83° East 464 534 39,000  Level FlightAware ADS-B
Tue 04:17:54 PM 42.1220 -104.6200 84° East 461 531 39,000  Level FlightAware ADS-B
Tue 04:18:44 PM 42.1330 -104.4910 83° East 460 529 39,000  Level FlightAware ADS-B
Tue 04:19:19 PM 42.1420 -104.3790 84° East 459 528 39,000  Level FlightAware ADS-B
Tue 04:19:50 PM 42.1500 -104.2890 83° East 460 529 39,000  Level FlightAware ADS-B
Tue 04:20:28 PM 42.1580 -104.1970 83° East 460 529 39,000  Level FlightAware ADS-B
Tue 04:21:05 PM 42.1660 -104.1080 83° East 460 529 39,000  Level FlightAware ADS-B
Tue 04:21:41 PM 42.1740 -104.0200 83° East 460 529 39,000  Level FlightAware ADS-B
Tue 04:22:18 PM 42.1820 -103.9310 83° East 460 529 39,000  Level FlightAware ADS-B
Tue 04:23:02 PM 42.1930 -103.7510 85° East 463 533 39,000  Level FlightAware ADS-B
Tue 04:23:36 PM 42.1990 -103.6680 84° East 463 533 39,000  Level FlightAware ADS-B
Tue 04:24:14 PM 42.2090 -103.5350 84° East 465 535 39,000  Level FlightAware ADS-B
Tue 04:25:05 PM 42.2200 -103.3960 84° East 465 535 39,000  Level FlightAware ADS-B
Tue 04:25:41 PM 42.2270 -103.3080 84° East 465 535 39,000  Level FlightAware ADS-B
Tue 04:26:20 PM 42.2360 -103.1710 85° East 468 539 39,000  Level FlightAware ADS-B
Tue 04:27:02 PM 42.2440 -103.0530 85° East 469 540 39,000  Level FlightAware ADS-B
Tue 04:27:47 PM 42.2540 -102.9280 84° East 470 541 39,000  Level FlightAware ADS-B
Tue 04:28:23 PM 42.2610 -102.8380 84° East 470 541 39,000  Level FlightAware ADS-B
Tue 04:28:59 PM 42.2680 -102.7490 84° East 470 541 39,000  Level FlightAware ADS-B
Tue 04:29:35 PM 42.2750 -102.6590 84° East 470 541 39,000  Level FlightAware ADS-B
Tue 04:30:11 PM 42.2810 -102.5700 85° East 470 541 39,000  Level FlightAware ADS-B
Tue 04:30:47 PM 42.2880 -102.4800 84° East 470 541 39,000  Level FlightAware ADS-B
Tue 04:31:23 PM 42.2950 -102.3910 84° East 470 541 39,000  Level FlightAware ADS-B
Tue 04:32:00 PM 42.3030 -102.2990 83° East 470 541 39,000  Level FlightAware ADS-B
Tue 04:32:38 PM 42.3100 -102.2050 84° East 470 541 39,000  Level FlightAware ADS-B
Tue 04:33:13 PM 42.3170 -102.1180 84° East 470 541 39,000  Level FlightAware ADS-B
Tue 04:33:50 PM 42.3240 -102.0260 84° East 470 541 39,000  Level FlightAware ADS-B
Tue 04:34:26 PM 42.3310 -101.9360 84° East 470 541 39,000  Level FlightAware ADS-B
Tue 04:35:03 PM 42.3380 -101.8440 84° East 470 541 39,000  Level FlightAware ADS-B
Tue 04:35:39 PM 42.3450 -101.7550 84° East 470 541 39,000  Level FlightAware ADS-B
Tue 04:36:16 PM 42.3520 -101.6620 84° East 470 541 39,000  Level FlightAware ADS-B
Tue 04:37:04 PM 42.3610 -101.5430 84° East 470 541 39,000  Level FlightAware ADS-B
Tue 04:37:59 PM 42.3628 -101.1522 84° East 473 544 39,000  Level Minneapolis Center
Tue 04:39:02 PM 42.3728 -100.9781 85° East 468 539 39,000  Level Minneapolis Center
Tue 04:40:04 PM 42.3828 -100.7672 86° East 468 539 39,000  Level Minneapolis Center
Tue 04:41:06 PM 42.3914 -100.5931 86° East 466 536 39,000  Level Minneapolis Center
Tue 04:42:08 PM 42.4011 -100.4200 86° East 463 533 39,000  Level Minneapolis Center
Tue 04:43:10 PM 42.4081 -100.2475 87° East 460 529 39,000  Level Minneapolis Center
Tue 04:44:12 PM 42.4164 -100.0739 86° East 461 531 39,000  Level Minneapolis Center
Tue 04:45:14 PM 42.4242 -99.9028 86° East 457 526 39,000  Level Minneapolis Center
Tue 04:46:16 PM 42.4317 -99.7317 87° East 456 525 39,000  Level Minneapolis Center
Tue 04:47:18 PM 42.4397 -99.5250 87° East 457 526 39,000  Level Minneapolis Center
Tue 04:48:36 PM 42.4486 -99.3150 87° East 457 526 39,000  Level Denver Center
Tue 04:49:38 PM 42.4547 -99.1408 87° East 460 529 39,000  Level Denver Center
Tue 04:50:25 PM 42.4597 -99.0019 87° East 463 533 39,000  Level Minneapolis Center
Tue 04:51:27 PM 42.4658 -98.8253 87° East 467 537 39,000  Level Minneapolis Center
Tue 04:52:29 PM 42.4731 -98.6508 87° East 465 535 39,000  Level Minneapolis Center
Tue 04:53:31 PM 42.4825 -98.4742 86° East 468 539 39,000  Level Minneapolis Center
Tue 04:59:27 PM 42.1430 -97.6440 86° East 470 541 39,000  Level FlightAware ADS-B
Tue 05:00:08 PM 42.1580 -97.5380 79° East 470 541 39,000  Level FlightAware ADS-B
Tue 05:00:45 PM 42.1770 -97.4210 78° East 472 543 39,000  Level FlightAware ADS-B
Tue 05:01:26 PM 42.1960 -97.3020 78° East 471 542 39,000  Level FlightAware ADS-B
Tue 05:01:59 PM 42.2100 -97.2080 79° East 471 542 39,000  Level FlightAware ADS-B
Tue 05:02:36 PM 42.2250 -97.1080 79° East 471 542 39,000  Level FlightAware ADS-B
Tue 05:03:17 PM 42.2440 -96.9810 79° East 471 542 39,000  Level FlightAware ADS-B
Tue 05:03:53 PM 42.2600 -96.8760 78° East 471 542 39,000  Level FlightAware ADS-B
Tue 05:04:29 PM 42.2750 -96.7730 79° East 470 541 39,000  Level FlightAware ADS-B
Tue 05:05:04 PM 42.2890 -96.6770 79° East 470 541 39,000  Level FlightAware ADS-B
Tue 05:05:41 PM 42.3050 -96.5690 79° East 469 540 39,000  Level FlightAware ADS-B
Tue 05:06:09 PM 42.3150 -96.4970 79° East 469 540 39,000  Level FlightAware ADS-B
Tue 05:06:50 PM 42.3330 -96.3710 79° East 470 541 39,000  Level FlightAware ADS-B
Tue 05:07:25 PM 42.3480 -96.2670 79° East 470 541 39,000  Level FlightAware ADS-B
Tue 05:08:07 PM 42.3630 -96.1610 79° East 470 541 39,000  Level FlightAware ADS-B
Tue 05:08:41 PM 42.3790 -96.0480 79° East 471 542 39,000  Level FlightAware ADS-B
Tue 05:09:29 PM 42.3990 -95.9090 79° East 472 543 39,000  Level FlightAware ADS-B
Tue 05:10:04 PM 42.4120 -95.8100 80° East 473 544 39,000  Level FlightAware ADS-B
Tue 05:10:41 PM 42.4280 -95.7000 79° East 473 544 39,000  Level FlightAware ADS-B
Tue 05:11:22 PM 42.4440 -95.5830 79° East 475 547 39,000  Level FlightAware ADS-B
Tue 05:11:57 PM 42.4580 -95.4790 80° East 476 548 39,000  Level FlightAware ADS-B
Tue 05:12:33 PM 42.4720 -95.3730 80° East 477 549 39,000  Level FlightAware ADS-B
Tue 05:13:06 PM 42.4850 -95.2770 80° East 477 549 39,000  Level FlightAware ADS-B
Tue 05:13:42 PM 42.4990 -95.1730 80° East 478 550 39,000  Level FlightAware ADS-B
Tue 05:14:15 PM 42.5120 -95.0740 80° East 478 550 39,000  Level FlightAware ADS-B
Tue 05:14:52 PM 42.5250 -94.9720 80° East 478 550 39,000  Level FlightAware ADS-B
Tue 05:15:27 PM 42.5390 -94.8620 80° East 479 551 39,000  Level FlightAware ADS-B
Tue 05:16:04 PM 42.5530 -94.7550 80° East 479 551 39,000  Level FlightAware ADS-B
Tue 05:16:33 PM 42.5640 -94.6700 80° East 479 551 39,000  Level FlightAware ADS-B
Tue 05:17:12 PM 42.5790 -94.5540 80° East 478 550 39,000  Level FlightAware ADS-B
Tue 05:17:48 PM 42.5920 -94.4460 81° East 478 550 39,000  Level FlightAware ADS-B
Tue 05:18:23 PM 42.6050 -94.3430 80° East 478 550 39,000  Level FlightAware ADS-B
Tue 05:18:56 PM 42.6110 -94.2450 85° East 478 550 39,000  Level FlightAware ADS-B
Tue 05:19:33 PM 42.6130 -94.1320 89° East 479 551 39,000  Level FlightAware ADS-B
Tue 05:20:04 PM 42.6140 -94.0420 89° East 480 552 39,000  Level FlightAware ADS-B
Tue 05:20:43 PM 42.6140 -93.9220 90° East 480 552 39,000  Level FlightAware ADS-B
Tue 05:21:16 PM 42.6150 -93.8250 89° East 480 552 39,000  Level FlightAware ADS-B
Tue 05:21:51 PM 42.6150 -93.7180 90° East 480 552 39,000  Level FlightAware ADS-B
Tue 05:22:27 PM 42.6160 -93.6090 89° East 480 552 39,000  Level FlightAware ADS-B
Tue 05:23:04 PM 42.6160 -93.5020 90° East 480 552 39,000  Level FlightAware ADS-B
Tue 05:23:35 PM 42.6160 -93.4060 90° East 477 549 39,000  Level FlightAware ADS-B
Tue 05:24:11 PM 42.6170 -93.3000 89° East 466 536 39,000  Level FlightAware ADS-B
Tue 05:24:46 PM 42.6170 -93.2000 90° East 461 531 39,000  Level FlightAware ADS-B
Tue 05:25:20 PM 42.6170 -93.1060 90° East 459 528 39,000  Level FlightAware ADS-B
Tue 05:25:54 PM 42.6170 -93.0040 90° East 460 529 39,000  Level FlightAware ADS-B
Tue 05:26:34 PM 42.6160 -92.8920 91° East 463 533 39,000  Level FlightAware ADS-B
Tue 05:27:06 PM 42.6160 -92.7980 90° East 464 534 39,000  Level FlightAware ADS-B
Tue 05:27:40 PM 42.6160 -92.6990 90° East 466 536 39,000  Level FlightAware ADS-B
Tue 05:28:18 PM 42.6150 -92.5870 91° East 467 537 39,000  Level FlightAware ADS-B
Tue 05:28:54 PM 42.6150 -92.4820 90° East 468 539 39,000  Level FlightAware ADS-B
Tue 05:29:26 PM 42.6140 -92.3880 91° East 469 540 39,000  Level FlightAware ADS-B
Tue 05:30:00 PM 42.6130 -92.2870 91° East 469 540 39,000  Level FlightAware ADS-B
Tue 05:30:36 PM 42.6120 -92.1830 91° East 469 540 39,000  Level FlightAware ADS-B
Tue 05:31:13 PM 42.6110 -92.0780 91° East 468 539 39,000  Level FlightAware ADS-B
Tue 05:31:46 PM 42.6110 -91.9790 90° East 468 539 39,000  Level FlightAware ADS-B
Tue 05:32:22 PM 42.6090 -91.8710 91° East 468 539 39,000  Level FlightAware ADS-B
Tue 05:32:57 PM 42.6080 -91.7730 91° East 468 539 39,000  Level FlightAware ADS-B
Tue 05:33:34 PM 42.6070 -91.6630 91° East 467 537 39,000  Level FlightAware ADS-B
Tue 05:34:04 PM 42.6060 -91.5740 91° East 467 537 39,000  Level FlightAware ADS-B
Tue 05:34:42 PM 42.6040 -91.4620 91° East 467 537 39,000  Level FlightAware ADS-B
Tue 05:35:17 PM 42.6020 -91.3630 92° East 467 537 39,000  Level FlightAware ADS-B
Tue 05:35:54 PM 42.6010 -91.2520 91° East 467 537 39,000  Level FlightAware ADS-B
Tue 05:36:26 PM 42.5990 -91.1590 92° East 467 537 39,000  Level FlightAware ADS-B
Tue 05:37:02 PM 42.5970 -91.0570 91° East 467 537 39,000  Level FlightAware ADS-B
Tue 05:37:34 PM 42.5960 -90.9640 91° East 467 537 39,000  Level FlightAware ADS-B
Tue 05:38:08 PM 42.5930 -90.8600 92° East 467 537 39,000  Level FlightAware ADS-B
Tue 05:38:46 PM 42.5910 -90.7550 91° East 466 536 39,000  Level FlightAware ADS-B
Tue 05:39:22 PM 42.5890 -90.6490 91° East 467 537 39,000  Level FlightAware ADS-B
Tue 05:39:58 PM 42.5870 -90.5460 91° East 467 537 39,000  Level FlightAware ADS-B
Tue 05:40:30 PM 42.5840 -90.4470 92° East 467 537 39,000  Level FlightAware ADS-B
Tue 05:41:07 PM 42.5820 -90.3370 91° East 467 537 39,000  Level FlightAware ADS-B
Tue 05:41:38 PM 42.5800 -90.2500 92° East 467 537 39,000  Level FlightAware ADS-B
Tue 05:42:17 PM 42.5770 -90.1350 92° East 467 537 39,000  Level FlightAware ADS-B
Tue 05:42:52 PM 42.5740 -90.0310 92° East 467 537 39,000  Level FlightAware ADS-B
Tue 05:43:24 PM 42.5710 -89.9360 92° East 467 537 39,000  Level FlightAware ADS-B
Tue 05:44:00 PM 42.5680 -89.8310 92° East 467 537 39,000  Level FlightAware ADS-B
Tue 05:44:37 PM 42.5650 -89.7270 92° East 467 537 39,000  Level FlightAware ADS-B
Tue 05:45:08 PM 42.5620 -89.6330 92° East 467 537 39,000  Level FlightAware ADS-B
Tue 05:45:48 PM 42.5580 -89.5150 93° East 467 537 39,000  Level FlightAware ADS-B
Tue 05:46:21 PM 42.5550 -89.4210 92° East 468 539 39,000  Level FlightAware ADS-B
Tue 05:46:56 PM 42.5520 -89.3170 92° East 468 539 39,000  Level FlightAware ADS-B
Tue 05:47:33 PM 42.5480 -89.2110 93° East 468 539 39,000  Level FlightAware ADS-B
Tue 05:48:05 PM 42.5450 -89.1180 92° East 467 537 39,000  Level FlightAware ADS-B
Tue 05:48:39 PM 42.5410 -89.0170 93° East 468 539 39,000  Level FlightAware ADS-B
Tue 05:49:16 PM 42.5370 -88.9090 93° East 468 539 39,000  Level FlightAware ADS-B
Tue 05:49:54 PM 42.5330 -88.7980 93° East 468 539 39,000  Level FlightAware ADS-B
Tue 05:50:26 PM 42.5300 -88.7030 92° East 468 539 39,000  Level FlightAware ADS-B
Tue 05:50:58 PM 42.5260 -88.6110 93° East 468 539 39,000  Level FlightAware ADS-B
Tue 05:51:38 PM 42.5210 -88.4920 93° East 468 539 39,000  Level FlightAware ADS-B
Tue 05:52:13 PM 42.5170 -88.3930 93° East 467 537 39,000  Level FlightAware ADS-B
Tue 05:52:46 PM 42.5130 -88.2960 93° East 469 540 39,000  Level FlightAware ADS-B
Tue 05:53:21 PM 42.5090 -88.1930 93° East 478 550 39,000  Level FlightAware ADS-B
Tue 05:53:56 PM 42.5040 -88.0860 94° East 487 560 39,000  Level FlightAware ADS-B
Tue 05:54:32 PM 42.5000 -87.9770 93° East 491 565 39,000  Level FlightAware ADS-B
Tue 05:55:06 PM 42.5000 -87.8700 90° East 490 564 39,000  Level FlightAware ADS-B
Tue 05:55:40 PM 42.5000 -87.7690 90° East 491 565 39,000  Level FlightAware ADS-B
Tue 05:56:17 PM 42.4990 -87.6550 91° East 490 564 39,000  Level FlightAware ADS-B
Tue 05:56:54 PM 42.4990 -87.5440 90° East 490 564 39,000  Level FlightAware ADS-B
Tue 05:57:26 PM 42.4990 -87.4460 90° East 490 564 39,000  Level FlightAware ADS-B
Tue 05:58:01 PM 42.4980 -87.3400 91° East 489 563 39,000  Level FlightAware ADS-B
Tue 05:58:31 PM 42.4980 -87.2500 90° East 488 562 39,000  Level FlightAware ADS-B
Tue 05:59:10 PM 42.4970 -87.1290 91° East 487 560 39,000  Level FlightAware ADS-B
Tue 05:59:46 PM 42.4960 -87.0260 91° East 486 559 39,000  Level FlightAware ADS-B
Tue 06:00:23 PM 42.4950 -86.9060 91° East 486 559 39,000  Level FlightAware ADS-B
Tue 06:00:56 PM 42.4940 -86.8110 91° East 486 559 39,000  Level FlightAware ADS-B
Tue 06:01:31 PM 42.4930 -86.6970 91° East 486 559 39,000  Level FlightAware ADS-B
Tue 06:02:07 PM 42.4920 -86.5880 91° East 484 557 39,000  Level FlightAware ADS-B
Tue 06:02:41 PM 42.4900 -86.4860 91° East 481 554 39,000  Level FlightAware ADS-B
Tue 06:03:19 PM 42.4890 -86.3720 91° East 480 552 39,000  Level FlightAware ADS-B
Tue 06:03:51 PM 42.4880 -86.2750 91° East 478 550 39,000  Level FlightAware ADS-B
Tue 06:04:27 PM 42.4860 -86.1680 91° East 476 548 39,000  Level FlightAware ADS-B
Tue 06:05:02 PM 42.4840 -86.0670 92° East 474 545 39,000  Level FlightAware ADS-B
Tue 06:05:39 PM 42.4820 -85.9560 91° East 474 545 39,000  Level FlightAware ADS-B
Tue 06:06:07 PM 42.4810 -85.8720 91° East 473 544 39,000  Level FlightAware ADS-B
Tue 06:06:47 PM 42.4790 -85.7590 91° East 473 544 39,000  Level FlightAware ADS-B
Tue 06:07:23 PM 42.4770 -85.6480 91° East 473 544 39,000  Level FlightAware ADS-B
Tue 06:07:59 PM 42.4740 -85.5420 92° East 473 544 39,000  Level FlightAware ADS-B
Tue 06:08:31 PM 42.4720 -85.4520 92° East 473 544 39,000  Level FlightAware ADS-B
Tue 06:09:05 PM 42.4700 -85.3520 92° East 472 543 39,000  Level FlightAware ADS-B
Tue 06:09:40 PM 42.4680 -85.2500 91° East 470 541 39,000  Level FlightAware ADS-B
Tue 06:10:13 PM 42.4650 -85.1510 92° East 470 541 39,000  Level FlightAware ADS-B
Tue 06:10:51 PM 42.4630 -85.0390 91° East 468 539 39,000  Level FlightAware ADS-B
Tue 06:11:23 PM 42.4600 -84.9450 92° East 468 539 39,000  Level FlightAware ADS-B
Tue 06:11:57 PM 42.4570 -84.8420 92° East 467 537 39,000  Level FlightAware ADS-B
Tue 06:12:33 PM 42.4550 -84.7400 91° East 468 539 39,000  Level FlightAware ADS-B
Tue 06:13:08 PM 42.4520 -84.6450 92° East 468 539 39,000  Level FlightAware ADS-B
Tue 06:13:42 PM 42.4490 -84.5390 92° East 469 540 39,000  Level FlightAware ADS-B
Tue 06:14:25 PM 42.4450 -84.4120 92° East 469 540 39,000  Level FlightAware ADS-B
Tue 06:15:02 PM 42.4410 -84.3030 93° East 470 541 39,000  Level FlightAware ADS-B
Tue 06:15:34 PM 42.4390 -84.2150 92° East 471 542 39,000  Level FlightAware ADS-B
Tue 06:16:08 PM 42.4350 -84.1080 93° East 471 542 39,000  Level FlightAware ADS-B
Tue 06:16:44 PM 42.4310 -84.0030 93° East 472 543 39,000  Level FlightAware ADS-B
Tue 06:17:22 PM 42.4280 -83.8930 92° East 473 544 39,000  Level FlightAware ADS-B
Tue 06:17:54 PM 42.4240 -83.7970 93° East 476 548 39,000  Level FlightAware ADS-B
Tue 06:18:28 PM 42.4200 -83.6940 93° East 479 551 39,000  Level FlightAware ADS-B
Tue 06:19:02 PM 42.4170 -83.5940 92° East 482 555 39,000  Level FlightAware ADS-B
Tue 06:19:38 PM 42.4120 -83.4840 93° East 486 559 39,000  Level FlightAware ADS-B
Tue 06:20:14 PM 42.4080 -83.3750 93° East 488 562 39,000  Level FlightAware ADS-B
Tue 06:20:43 PM 42.4040 -83.2880 94° East 489 563 39,000  Level FlightAware ADS-B
Tue 06:21:16 PM 42.4000 -83.1890 93° East 491 565 39,000  Level FlightAware ADS-B
Tue 06:21:52 PM 42.3960 -83.0750 93° East 493 567 39,000  Level FlightAware ADS-B
Tue 06:22:28 PM 42.3910 -82.9650 93° East 495 570 39,000  Level FlightAware ADS-B
Tue 06:23:05 PM 42.3860 -82.8540 93° East 496 571 39,000  Level FlightAware ADS-B
Tue 06:23:34 PM 42.3820 -82.7620 93° East 497 572 39,000  Level FlightAware ADS-B
Tue 06:24:12 PM 42.3760 -82.6430 94° East 498 573 39,000  Level FlightAware ADS-B
Tue 06:24:48 PM 42.3720 -82.5310 93° East 500 575 39,000  Level FlightAware ADS-B
Tue 06:25:18 PM 42.3690 -82.4350 92° East 503 579 39,000  Level FlightAware ADS-B
Tue 06:25:56 PM 42.3640 -82.3180 93° East 504 580 39,000  Level FlightAware ADS-B
Tue 06:26:32 PM 42.3590 -82.2050 93° East 506 582 39,000  Level FlightAware ADS-B
Tue 06:27:11 PM 42.3550 -82.1070 93° East 507 583 39,000  Level FlightAware ADS-B
Tue 06:27:55 PM 42.3490 -81.9670 93° East 509 586 39,000  Level FlightAware ADS-B
Tue 06:28:33 PM 42.3430 -81.8270 93° East 510 587 39,000  Level FlightAware ADS-B
Tue 06:29:06 PM 42.3390 -81.7360 93° East 511 588 39,000  Level FlightAware ADS-B
Tue 06:29:42 PM 42.3330 -81.6130 94° East 511 588 39,000  Level FlightAware ADS-B
Tue 06:30:27 PM 42.3270 -81.4870 94° East 510 587 39,000  Level FlightAware ADS-B
Tue 06:31:08 PM 42.3230 -81.3760 93° East 510 587 39,000  Level FlightAware ADS-B
Tue 06:31:43 PM 42.3190 -81.2820 93° East 510 587 39,000  Level FlightAware ADS-B
Tue 06:32:13 PM 42.3160 -81.2000 93° East 510 587 39,000  Level FlightAware ADS-B
Tue 06:32:48 PM 42.3030 -81.0140 95° East 509 586 39,000  Level FlightAware ADS-B
Tue 06:33:21 PM 42.2990 -80.9260 93° East 509 586 39,000  Level FlightAware ADS-B
Tue 06:33:58 PM 42.2930 -80.8130 94° East 507 583 39,000  Level FlightAware ADS-B
Tue 06:34:32 PM 42.2870 -80.7020 94° East 507 583 39,000  Level FlightAware ADS-B
Tue 06:35:10 PM 42.2800 -80.5850 95° East 507 583 39,000  Level FlightAware ADS-B
Tue 06:35:40 PM 42.2750 -80.4890 94° East 506 582 39,000  Level FlightAware ADS-B
Tue 06:36:17 PM 42.2680 -80.3700 95° East 505 581 39,000  Level FlightAware ADS-B
Tue 06:36:53 PM 42.2620 -80.2630 94° East 504 580 39,000  Level FlightAware ADS-B
Tue 06:37:27 PM 42.2560 -80.1600 94° East 504 580 39,000  Level FlightAware ADS-B
Tue 06:38:04 PM 42.2480 -80.0380 95° East 504 580 39,000  Level FlightAware ADS-B
Tue 06:38:37 PM 42.2420 -79.9390 95° East 504 580 39,000  Level FlightAware ADS-B
Tue 06:39:15 PM 42.2350 -79.8190 94° East 504 580 39,000  Level FlightAware ADS-B
Tue 06:39:50 PM 42.2280 -79.7080 95° East 503 579 39,000  Level FlightAware ADS-B
Tue 06:40:26 PM 42.2200 -79.5840 95° East 502 578 39,000  Level FlightAware ADS-B
Tue 06:41:01 PM 42.2120 -79.4660 95° East 501 577 39,000  Level FlightAware ADS-B
Tue 06:41:37 PM 42.2050 -79.3560 95° East 501 577 39,000  Level FlightAware ADS-B
Tue 06:42:09 PM 42.1980 -79.2570 95° East 500 575 39,000  Level FlightAware ADS-B
Tue 06:42:47 PM 42.1880 -79.1390 96° East 505 581 39,000  Level FlightAware ADS-B
Tue 06:43:19 PM 42.1690 -79.0410 105° East 514 592 39,000  Level FlightAware ADS-B
Tue 06:43:57 PM 42.1400 -78.9230 108° East 515 593 39,000  Level FlightAware ADS-B
Tue 06:44:32 PM 42.1140 -78.8210 109° East 515 593 39,000  Level FlightAware ADS-B
Tue 06:45:05 PM 42.0880 -78.7190 109° East 514 592 39,000  Level FlightAware ADS-B
Tue 06:45:41 PM 42.0600 -78.6100 109° East 515 593 39,000  Level FlightAware ADS-B
Tue 06:46:17 PM 42.0320 -78.4990 109° East 516 594 39,000  Level FlightAware ADS-B
Tue 06:46:49 PM 42.0080 -78.4050 109° East 517 595 39,000  Level FlightAware ADS-B
Tue 06:47:27 PM 41.9780 -78.2890 109° East 517 595 39,000  Level FlightAware ADS-B
Tue 06:48:03 PM 41.9510 -78.1830 109° East 516 594 39,000  Level FlightAware ADS-B
Tue 06:48:35 PM 41.9250 -78.0820 109° East 515 593 39,000  Level FlightAware ADS-B
Tue 06:49:11 PM 41.8970 -77.9730 109° East 515 593 39,000  Level FlightAware ADS-B
Tue 06:49:43 PM 41.8720 -77.8790 110° East 514 592 39,000  Level FlightAware ADS-B
Tue 06:50:21 PM 41.8420 -77.7640 109° East 515 593 39,000  Level FlightAware ADS-B
Tue 06:50:57 PM 41.8140 -77.6570 109° East 514 592 39,000  Level FlightAware ADS-B
Tue 06:51:29 PM 41.7890 -77.5640 110° East 513 590 39,000  Level FlightAware ADS-B
Tue 06:52:05 PM 41.7600 -77.4540 109° East 513 590 39,000  Level FlightAware ADS-B
Tue 06:52:43 PM 41.7290 -77.3390 110° East 513 590 39,000  Level FlightAware ADS-B
Tue 06:53:15 PM 41.7040 -77.2440 109° East 513 590 39,000  Level FlightAware ADS-B
Tue 06:53:51 PM 41.6750 -77.1380 110° East 512 589 39,000  Level FlightAware ADS-B
Tue 06:54:25 PM 41.6480 -77.0370 110° East 512 589 39,000 -176 Level FlightAware ADS-B
Tue 06:54:59 PM 41.6210 -76.9370 110° East 506 582 38,800 -484 Descending FlightAware ADS-B
Tue 06:55:27 PM 41.5990 -76.8580 110° East 501 577 38,500 -1,108 Descending FlightAware ADS-B
Tue 06:56:04 PM 41.5730 -76.7620 110° East 504 580 37,600 -1,417 Descending FlightAware ADS-B
Tue 06:56:39 PM 41.5410 -76.6450 110° East 512 589 36,800 -1,543 Descending FlightAware ADS-B
Tue 06:57:14 PM 41.5130 -76.5430 110° East 514 592 35,800 -1,775 Descending FlightAware ADS-B
Tue 06:57:50 PM 41.4810 -76.4290 111° Southeast 524 603 34,700 -1,569 Descending FlightAware ADS-B
Tue 06:58:19 PM 41.4580 -76.3450 110° East 525 604 34,100 -724 Descending FlightAware ADS-B
Tue 06:58:48 PM 41.4360 -76.2550 108° East 515 593 34,000 -102 Descending FlightAware ADS-B
Tue 06:59:18 PM 41.4300 -76.1650 95° East 501 577 34,000  Level FlightAware ADS-B
Tue 06:59:56 PM 41.4270 -76.0470 92° East 498 573 34,000  Level FlightAware ADS-B
Tue 07:00:28 PM 41.4260 -75.9520 91° East 497 572 34,000  Level FlightAware ADS-B
Tue 07:01:12 PM 41.4150 -75.8120 96° East 515 593 34,000  Level FlightAware ADS-B
Tue 07:01:28 PM 41.3990 -75.7650 114° Southeast 526 605 34,000 -1,149 Level FlightAware ADS-B
Tue 07:01:59 PM 41.3520 -75.6900 130° Southeast 527 606 33,100 -2,647 Descending FlightAware ADS-B
Tue 07:02:36 PM 41.2810 -75.6260 146° Southeast 513 590 31,000 -4,274 Descending FlightAware ADS-B
Tue 07:03:12 PM 41.2100 -75.5690 149° Southeast 512 589 27,900 -5,250 Descending FlightAware ADS-B
Tue 07:03:48 PM 41.1350 -75.5070 148° Southeast 498 573 24,700 -3,039 Descending FlightAware ADS-B
Tue 07:04:29 PM 41.0700 -75.4220 135° Southeast 486 559 24,000 -553 Descending FlightAware ADS-B
Tue 07:05:04 PM 41.0400 -75.3240 112° Southeast 483 556 24,000 -333 Level FlightAware ADS-B
Tue 07:05:41 PM 41.0430 -75.2190 88° East 468 539 23,600 -882 Descending FlightAware ADS-B
Tue 07:06:12 PM 41.0590 -75.1320 76° East 463 533 23,000 -537 Descending FlightAware ADS-B
Tue 07:06:48 PM 41.0530 -75.0410 95° East 435 501 23,000 -82 Level FlightAware ADS-B
Tue 07:07:25 PM 41.0240 -74.9470 112° Southeast 399 459 22,900 -553 Descending FlightAware ADS-B
Tue 07:08:04 PM 40.9990 -74.8650 112° Southeast 382 440 22,300 -789 Descending FlightAware ADS-B
Tue 07:08:41 PM 40.9860 -74.7770 101° East 371 427 21,900 -761 Descending FlightAware ADS-B
Tue 07:09:15 PM 40.9780 -74.7020 98° East 364 419 21,400 -771 Descending FlightAware ADS-B
Tue 07:09:51 PM 40.9690 -74.6260 99° East 359 413 21,000 -353 Descending FlightAware ADS-B
Tue 07:10:23 PM 40.9620 -74.5550 97° East 359 413 21,000 -429 Level FlightAware ADS-B
Tue 07:10:47 PM 40.9680 -74.5040 81° East 360 414 20,600 -1,017 Descending FlightAware ADS-B
Tue 07:11:22 PM 40.9886 -74.4307 70° East 352 405 20,000 -914 Descending FlightAware ADS-B
Tue 07:12:32 PM 40.9950 -74.2900 87° East 346 398 19,000 -698 Descending FlightAware ADS-B
Tue 07:12:48 PM 40.9800 -74.2591 123° Southeast 352 405 19,000  Level FlightAware ADS-B
Tue 07:13:02 PM 40.9675 -74.2347 124° Southeast 356 410 19,000  Level FlightAware ADS-B
Tue 07:13:14 PM 40.9558 -74.2134 126° Southeast 353 406 19,000  Level FlightAware ADS-B
Tue 07:13:45 PM 40.9159 -74.1734 143° Southeast 354 407 19,000 -500 Level FlightAware ADS-B
Tue 07:14:38 PM 40.8435 -74.1139 148° Southeast 349 402 18,300 -1,111 Descending FlightAware ADS-B
Tue 07:15:06 PM 40.8045 -74.0811 148° Southeast 351 404 17,500 -1,688 Descending FlightAware ADS-B
Tue 07:15:10 PM 40.7989 -74.0756 143° Southeast 351 404 17,400 -1,636 Descending FlightAware ADS-B
Tue 07:15:17 PM 40.7908 -74.0655 137° Southeast 349 402 17,200 -1,667 Descending FlightAware ADS-B
Tue 07:15:28 PM 40.7815 -74.0474 124° Southeast 344 396 16,900 -1,714 Descending FlightAware ADS-B
Tue 07:15:38 PM 40.7752 -74.0284 114° Southeast 340 391 16,600 -1,500 Descending FlightAware ADS-B
Tue 07:16:08 PM 40.7600 -73.9710 109° East 335 386 15,900 -1,364 Descending FlightAware ADS-B
Tue 07:16:44 PM 40.7410 -73.9010 110° East 327 376 15,100 -1,397 Descending FlightAware ADS-B
Tue 07:17:21 PM 40.7230 -73.8320 109° East 322 371 14,200 -1,324 Descending FlightAware ADS-B
Tue 07:17:52 PM 40.7110 -73.7780 106° East 314 361 13,600 -1,091 Descending FlightAware ADS-B
Tue 07:18:27 PM 40.7100 -73.7120 91° East 312 359 13,000 -750 Descending FlightAware ADS-B
Tue 07:19:04 PM 40.7090 -73.6420 91° East 310 357 12,700 -845 Descending FlightAware ADS-B
Tue 07:19:38 PM 40.7080 -73.5740 91° East 312 359 12,000 -792 Descending FlightAware ADS-B
Tue 07:19:57 PM 40.7070 -73.5410 92° East 314 361 12,000  Level FlightAware ADS-B
Tue 07:20:08 PM 40.7000 -73.5200 114° Southeast 318 366 12,000  Level FlightAware ADS-B
Tue 07:20:26 PM 40.6820 -73.4940 132° Southeast 325 374 12,000 -214 Level FlightAware ADS-B
Tue 07:21:04 PM 40.6310 -73.4640 156° South 326 375 11,800 -822 Descending FlightAware ADS-B
Tue 07:21:39 PM 40.5810 -73.4750 189° South 312 359 11,000 -1,826 Descending FlightAware ADS-B
Tue 07:22:13 PM 40.5350 -73.5010 203° Southwest 306 352 9,700 -2,333 Descending FlightAware ADS-B
Tue 07:22:33 PM 40.5090 -73.5150 202° Southwest 304 350 8,900 -2,250 Descending FlightAware ADS-B
Tue 07:22:53 PM 40.4840 -73.5300 205° Southwest 298 343 8,200 -2,167 Descending FlightAware ADS-B
Tue 07:23:09 PM 40.4650 -73.5420 206° Southwest 293 337 7,600 -2,294 Descending FlightAware ADS-B
Tue 07:23:27 PM 40.4430 -73.5560 206° Southwest 291 335 6,900 -2,250 Descending FlightAware ADS-B
Tue 07:23:41 PM 40.4270 -73.5660 205° Southwest 290 334 6,400 -2,200 Descending FlightAware ADS-B
Tue 07:23:57 PM 40.4100 -73.5840 219° Southwest 284 327 5,800 -2,167 Descending FlightAware ADS-B
Tue 07:24:17 PM 40.3940 -73.6110 232° Southwest 281 323 5,100 -1,571 Descending FlightAware ADS-B
Tue 07:24:39 PM 40.3790 -73.6400 236° Southwest 279 321 4,700 -1,043 Descending FlightAware ADS-B
Tue 07:25:03 PM 40.3620 -73.6700 233° Southwest 275 316 4,300 -1,091 Descending FlightAware ADS-B
Tue 07:25:23 PM 40.3450 -73.7010 234° Southwest 273 314 3,900 -1,125 Descending FlightAware ADS-B
Tue 07:25:35 PM 40.3360 -73.7200 238° Southwest 268 308 3,700 -900 Descending FlightAware ADS-B
Tue 07:25:43 PM 40.3340 -73.7300 255° West 261 300 3,600 -500 Descending FlightAware ADS-B
Tue 07:26:11 PM 40.3420 -73.7710 284° West 237 273 3,400 -500 Descending FlightAware ADS-B
Tue 07:26:31 PM 40.3520 -73.7980 296° West 228 262 3,200 -500 Descending FlightAware ADS-B
Tue 07:26:47 PM 40.3590 -73.8160 297° West 220 253 3,100 -353 Descending FlightAware ADS-B
Tue 07:27:05 PM 40.3670 -73.8370 297° West 204 235 3,000 -146 Descending FlightAware ADS-B
Tue 07:27:28 PM 40.3750 -73.8580 297° West 186 214 3,000  Level FlightAware ADS-B
Tue 07:27:47 PM 40.3820 -73.8780 295° West 181 208 3,000  Level FlightAware ADS-B
Tue 07:28:04 PM 40.3900 -73.8950 302° West 180 207 3,000 -214 Level FlightAware ADS-B
Tue 07:28:15 PM 40.3980 -73.9020 326° Northwest 179 206 2,900 -632 Descending FlightAware ADS-B
Tue 07:28:23 PM 40.4030 -73.9030 351° North 179 206 2,800 -667 Descending FlightAware ADS-B
Tue 07:28:42 PM 40.4200 -73.9040 357° North 181 208 2,600 -750 Descending FlightAware ADS-B
Tue 07:29:03 PM 40.4360 -73.9030 North 182 209 2,300 -837 Descending FlightAware ADS-B
Tue 07:29:25 PM 40.4540 -73.8980 12° North 185 213 2,000 -409 Descending FlightAware ADS-B
Tue 07:29:47 PM 40.4710 -73.8890 22° Northeast 187 215 2,000  Level FlightAware ADS-B
Tue 07:30:07 PM 40.4870 -73.8790 25° Northeast 186 214 2,000  Level FlightAware ADS-B
Tue 07:30:25 PM 40.5020 -73.8670 31° Northeast 188 216 2,000  Level FlightAware ADS-B
Tue 07:30:55 PM 40.5250 -73.8490 31° Northeast 184 212 2,000  Level FlightAware ADS-B
Tue 07:31:17 PM 40.5400 -73.8370 31° Northeast 173 199 2,000 -353 Level FlightAware ADS-B
Tue 07:31:29 PM 40.5490 -73.8300 31° Northeast 165 190 1,800 -947 Descending FlightAware ADS-B
Tue 07:31:55 PM 40.5650 -73.8180 30° Northeast 145 167 1,400 -837 Descending FlightAware ADS-B
Tue 07:32:12 PM 40.5740 -73.8110 31° Northeast 133 153 1,200 -600 Descending FlightAware ADS-B
Tue 07:32:35 PM 40.5860 -73.8010 32° Northeast 127 146 1,000 -545 Descending FlightAware ADS-B
Tue 07:32:56 PM 40.5960 -73.7940 28° Northeast 127 146 800 -667 Descending FlightAware ADS-B
Tue 07:33:11 PM 40.6040 -73.7870 34° Northeast 126 145 600 -686 Descending FlightAware ADS-B
Tue 07:33:31 PM 40.6140 -73.7790 31° Northeast 123 142 400 -732 Descending FlightAware ADS-B
Tue 07:33:52 PM 40.6250 -73.7710 29° Northeast 126 145 100 -857 Descending FlightAware ADS-B
Tue 07:34:15 PM 40.6350 -73.7630 31° Northeast 90 104 -261 Descending FlightAware ADS-B

Login

Don't have an account? Register now (free) for customized features, flight alerts, and more!